Time;durP1;ratioP1;P1;durP2;ratioP2;P2;SDS_P1;SDS_P2;PMS_P1;PMS_P2;Temp;Humidity;BMP_temperature;BMP_pressure;BME280_temperature;BME280_humidity;BME280_pressure;Samples;Min_cycle;Max_cycle;Signal;HPM_P1;HPM_P2
2023/05/07 00:53:42;;;;;;;3.70;3.35;;;;;;;14.49;68.18;96625.94;5148992;23;20051;-87
2023/05/07 00:56:10;;;;;;;4.60;4.03;;;;;;;14.55;70.51;96619.91;4996371;28;20050;-85
2023/05/07 00:58:38;;;;;;;5.75;4.30;;;;;;;14.55;67.98;96616.47;4997239;28;20099;-86
2023/05/07 01:01:06;;;;;;;5.90;4.05;;;;;;;14.55;69.13;96612.03;4993103;28;20059;-85
2023/05/07 01:03:33;;;;;;;4.68;3.88;;;;;;;14.55;67.94;96614.66;4989591;28;20499;-87
2023/05/07 02:05:27;;;;;;;3.95;3.55;;;;;;;14.43;75.33;96603.97;5960427;23;20050;-89
2023/05/07 02:07:54;;;;;;;6.53;4.03;;;;;;;14.51;74.76;96594.25;5001454;28;20046;-82
2023/05/07 02:10:22;;;;;;;4.55;3.47;;;;;;;14.47;70.66;96593.03;5002282;28;20060;-84
2023/05/07 02:12:50;;;;;;;3.97;3.58;;;;;;;14.39;69.18;96594.88;5001719;28;20053;-84
2023/05/07 02:15:17;;;;;;;4.88;3.45;;;;;;;14.35;70.90;96593.69;5001807;28;20046;-87
2023/05/07 02:17:59;;;;;;;6.70;3.85;;;;;;;14.39;72.47;96594.09;5022075;23;20051;-75
2023/05/07 02:20:29;;;;;;;6.95;5.00;;;;;;;14.36;69.59;96589.22;4976081;28;20062;-73
2023/05/07 02:22:56;;;;;;;4.68;4.13;;;;;;;14.37;70.98;96591.66;4975864;28;20043;-73
2023/05/07 02:25:24;;;;;;;3.75;3.45;;;;;;;14.38;72.84;96593.25;4976183;28;20050;-73
2023/05/07 02:27:51;;;;;;;4.95;4.43;;;;;;;14.39;74.04;96594.88;4976298;28;20109;-76
2023/05/07 02:30:21;;;;;;;6.65;4.88;;;;;;;14.41;75.27;96597.31;4976384;28;20058;-73
2023/05/07 02:32:48;;;;;;;6.60;5.15;;;;;;;14.36;70.84;96591.84;4975934;28;20089;-73
2023/05/07 02:35:16;;;;;;;5.55;4.95;;;;;;;14.30;73.48;96593.50;4976227;28;20047;-76
2023/05/07 02:37:45;;;;;;;6.22;5.00;;;;;;;14.27;73.76;96593.09;4975923;28;20426;-73
2023/05/07 02:40:13;;;;;;;8.35;5.70;;;;;;;14.22;71.00;96588.47;4975814;28;20061;-73
2023/05/07 02:42:40;;;;;;;5.78;4.88;;;;;;;14.26;73.94;96588.88;4976329;28;20083;-74
2023/05/07 02:45:09;;;;;;;5.60;4.60;;;;;;;14.30;75.73;96596.13;4977802;28;20114;-74
2023/05/07 02:47:37;;;;;;;5.55;4.97;;;;;;;14.33;73.94;96589.66;4993830;28;20085;-74
2023/05/07 02:50:06;;;;;;;7.30;4.57;;;;;;;14.31;73.30;96592.47;4993574;28;20058;-74
2023/05/07 02:52:33;;;;;;;6.10;4.35;;;;;;;14.30;75.07;96590.88;4993006;28;20062;-74
2023/05/07 02:55:02;;;;;;;5.90;4.90;;;;;;;14.31;76.66;96599.53;4980681;28;20134;-73
2023/05/07 02:57:30;;;;;;;6.93;4.53;;;;;;;14.32;76.00;96598.53;4979652;28;20055;-73
2023/05/07 02:59:58;;;;;;;5.65;4.60;;;;;;;14.33;76.30;96606.19;4979708;28;20046;-74
2023/05/07 03:02:26;;;;;;;5.55;4.78;;;;;;;14.26;71.49;96600.16;4978386;28;20050;-74
2023/05/07 03:04:54;;;;;;;5.30;4.32;;;;;;;14.19;72.01;96601.97;4977450;28;20499;-73
2023/05/07 03:07:21;;;;;;;4.93;4.43;;;;;;;14.24;75.57;96604.81;4976721;28;20096;-74
2023/05/07 03:09:49;;;;;;;6.15;4.47;;;;;;;14.20;72.61;96601.78;4976092;28;20529;-74
2023/05/07 03:12:17;;;;;;;5.10;4.60;;;;;;;14.12;72.06;96598.56;4976195;28;20058;-73
2023/05/07 03:14:45;;;;;;;4.57;4.15;;;;;;;14.10;72.77;96595.31;4975408;28;20485;-73
2023/05/07 03:17:12;;;;;;;4.68;3.63;;;;;;;14.09;70.29;96593.72;4975610;28;20057;-74
2023/05/07 03:19:40;;;;;;;4.22;3.80;;;;;;;14.09;71.33;96593.72;4975315;28;20082;-74
2023/05/07 03:22:08;;;;;;;4.57;4.18;;;;;;;14.13;73.77;96592.31;4975094;28;20089;-73
2023/05/07 03:24:35;;;;;;;3.20;2.85;;;;;;;14.08;69.66;96586.84;4974159;28;20174;-74
2023/05/07 03:27:03;;;;;;;6.78;3.70;;;;;;;13.98;68.77;96588.09;4975039;28;20495;-74
2023/05/07 03:29:32;;;;;;;3.65;3.20;;;;;;;13.94;69.31;96586.88;4974927;28;20057;-73
2023/05/07 03:31:59;;;;;;;3.55;2.67;;;;;;;13.89;67.70;96588.50;4975220;28;20054;-73
2023/05/07 03:34:27;;;;;;;3.72;2.33;;;;;;;13.84;67.14;96586.50;4974919;28;20051;-74
2023/05/07 03:36:55;;;;;;;5.93;2.50;;;;;;;13.80;66.83;96577.41;4975266;28;20475;-73
2023/05/07 03:39:23;;;;;;;2.90;2.15;;;;;;;13.76;66.40;96589.31;4975203;28;20050;-73
2023/05/07 03:41:50;;;;;;;4.57;2.50;;;;;;;13.74;66.90;96586.88;4974944;28;20053;-73
2023/05/07 03:44:18;;;;;;;2.25;2.05;;;;;;;13.72;66.51;96591.53;4974492;28;20402;-74
2023/05/07 03:46:47;;;;;;;5.50;2.47;;;;;;;13.70;66.08;96584.88;4974771;28;20057;-75
2023/05/07 03:49:14;;;;;;;2.47;1.90;;;;;;;13.75;68.04;96582.44;4974384;28;20051;-73
2023/05/07 03:51:42;;;;;;;3.22;2.03;;;;;;;13.78;66.29;96587.31;4974152;28;20503;-73
2023/05/07 03:54:10;;;;;;;2.10;1.90;;;;;;;13.80;65.58;96593.16;4974417;28;20056;-74
2023/05/07 03:56:37;;;;;;;3.95;2.40;;;;;;;13.81;65.48;96594.75;4974271;28;20082;-73
2023/05/07 03:59:05;;;;;;;2.60;2.40;;;;;;;13.82;65.03;96585.88;4974118;28;20062;-73
2023/05/07 04:01:32;;;;;;;2.75;2.50;;;;;;;13.81;64.89;96592.13;4974280;28;20054;-73
2023/05/07 04:04:01;;;;;;;2.10;1.95;;;;;;;13.80;64.78;96593.16;4975990;28;20070;-73
2023/05/07 04:06:29;;;;;;;2.42;1.95;;;;;;;13.79;65.12;96594.94;4982027;28;20055;-74
2023/05/07 04:08:56;;;;;;;4.13;2.30;;;;;;;13.79;64.82;96600.19;4979573;28;20046;-73
2023/05/07 04:11:24;;;;;;;6.00;2.20;;;;;;;13.80;65.27;96596.56;4974083;28;20054;-73
2023/05/07 04:13:52;;;;;;;2.38;2.05;;;;;;;13.84;65.35;96598.78;4973813;28;20074;-73
2023/05/07 04:16:19;;;;;;;3.00;2.70;;;;;;;13.83;65.21;96603.22;4973860;28;20485;-73
2023/05/07 04:18:47;;;;;;;2.55;2.35;;;;;;;13.83;66.64;96600.59;4973411;28;20529;-73
2023/05/07 04:21:17;;;;;;;6.07;2.97;;;;;;;13.87;66.57;96608.88;4973816;28;20134;-73
2023/05/07 04:23:45;;;;;;;4.85;3.15;;;;;;;13.89;66.10;96610.28;4973400;28;20130;-73
2023/05/07 04:26:12;;;;;;;2.97;2.78;;;;;;;13.90;65.46;96608.47;4973634;28;20478;-73
2023/05/07 04:28:40;;;;;;;3.78;3.10;;;;;;;13.90;65.18;96605.84;4973702;28;20511;-73
2023/05/07 04:31:08;;;;;;;2.92;2.53;;;;;;;13.88;64.61;96603.41;4973503;28;20051;-75
2023/05/07 04:33:36;;;;;;;4.05;2.35;;;;;;;13.86;64.69;96608.03;4971169;28;20046;-74
2023/05/07 04:36:04;;;;;;;2.47;2.28;;;;;;;13.86;64.50;96610.66;4962038;28;20498;-74
2023/05/07 04:38:33;;;;;;;2.92;2.70;;;;;;;13.87;64.32;96617.53;4969107;28;20113;-74
2023/05/07 04:41:05;;;;;;;3.00;2.70;;;;;;;13.86;64.43;96615.13;4962062;28;20059;-73
2023/05/07 04:43:32;;;;;;;2.92;2.67;;;;;;;13.87;64.94;96607.06;4959624;28;20470;-74
2023/05/07 04:46:00;;;;;;;3.80;2.60;;;;;;;13.88;64.61;96615.72;4972955;28;20058;-74
2023/05/07 04:48:28;;;;;;;3.38;2.50;;;;;;;13.88;64.57;96613.09;4971892;28;20104;-74
2023/05/07 04:50:56;;;;;;;3.40;3.10;;;;;;;13.88;64.28;96608.66;4972905;28;20105;-74
2023/05/07 04:53:24;;;;;;;3.40;3.10;;;;;;;13.89;64.69;96612.09;4969603;28;20126;-74
2023/05/07 04:55:58;;;;;;;3.10;2.75;;;;;;;13.91;64.28;96610.88;4966090;28;20062;-74
2023/05/07 04:58:25;;;;;;;3.80;2.70;;;;;;;13.93;64.53;96611.50;4973198;28;20139;-74
2023/05/07 05:00:53;;;;;;;3.10;2.60;;;;;;;13.98;65.44;96611.69;4971442;28;20043;-75
2023/05/07 05:03:20;;;;;;;3.42;2.63;;;;;;;14.01;64.97;96613.91;4975062;28;20153;-74
2023/05/07 05:11:12;;;;;;;4.20;3.05;;;;;;;14.20;65.16;96627.22;4940564;29;20103;-79
2023/05/07 05:13:40;;;;;;;2.65;2.45;;;;;;;14.27;64.47;96628.00;4924843;29;20055;-77
2023/05/07 05:16:07;;;;;;;3.95;2.50;;;;;;;14.32;64.31;96630.84;4935374;29;20060;-79
2023/05/07 05:18:35;;;;;;;4.65;2.72;;;;;;;14.35;64.06;96635.66;4934684;29;20508;-78
2023/05/07 05:21:03;;;;;;;4.20;2.60;;;;;;;14.39;63.84;96636.88;4933837;29;20058;-78
2023/05/07 05:23:31;;;;;;;3.72;2.85;;;;;;;14.42;63.67;96640.91;4932739;29;20054;-78
2023/05/07 05:25:59;;;;;;;2.90;2.30;;;;;;;14.46;64.63;96643.94;4934638;29;20055;-78
2023/05/07 05:28:28;;;;;;;2.60;2.40;;;;;;;14.52;64.43;96645.72;4934381;29;20147;-78
2023/05/07 05:30:56;;;;;;;3.88;3.38;;;;;;;14.55;64.32;96648.78;4923557;29;20435;-77
2023/05/07 05:33:23;;;;;;;3.20;2.72;;;;;;;14.57;63.90;96643.31;4933484;29;20431;-77
2023/05/07 05:35:51;;;;;;;3.45;2.80;;;;;;;14.56;63.36;96646.94;4921662;29;20075;-77
2023/05/07 05:38:20;;;;;;;4.88;2.78;;;;;;;14.55;64.57;96651.41;4916884;29;20052;-77
2023/05/07 05:40:48;;;;;;;4.40;3.35;;;;;;;14.55;63.73;96656.66;4930215;29;20488;-76
2023/05/07 05:43:15;;;;;;;2.97;2.47;;;;;;;14.58;63.96;96655.44;4939370;29;20048;-75
2023/05/07 05:45:44;;;;;;;3.97;2.75;;;;;;;14.59;63.39;96643.94;4926556;29;20059;-75
2023/05/07 05:48:12;;;;;;;3.38;2.83;;;;;;;14.59;63.53;96643.94;4936535;29;20054;-76
2023/05/07 05:50:40;;;;;;;3.30;3.00;;;;;;;14.59;63.48;96641.31;4937110;29;20060;-75
2023/05/07 05:53:07;;;;;;;6.00;2.88;;;;;;;14.58;63.24;96640.50;4934208;29;20815;-76
2023/05/07 05:55:35;;;;;;;2.50;2.30;;;;;;;14.63;64.48;96647.75;4929750;29;20134;-73
2023/05/07 05:58:03;;;;;;;9.65;3.20;;;;;;;14.68;64.19;96641.88;4935034;29;20052;-76
2023/05/07 06:00:31;;;;;;;3.15;2.85;;;;;;;14.72;63.92;96650.97;4928673;29;20050;-76
2023/05/07 06:03:00;;;;;;;5.00;3.13;;;;;;;14.78;64.12;96656.19;4937441;29;20054;-79
2023/05/07 06:05:27;;;;;;;3.70;3.40;;;;;;;14.83;64.06;96651.13;4937445;29;20582;-77
2023/05/07 06:07:55;;;;;;;3.47;3.00;;;;;;;14.91;63.93;96657.97;4937807;29;20119;-77
2023/05/07 06:10:23;;;;;;;3.47;3.17;;;;;;;14.96;63.56;96667.88;4936056;29;20059;-75
2023/05/07 06:12:51;;;;;;;4.47;2.95;;;;;;;15.00;63.27;96663.81;4932450;29;20051;-74
2023/05/07 06:15:19;;;;;;;3.30;2.83;;;;;;;15.03;62.84;96647.63;4924974;29;20052;-74
2023/05/07 06:17:47;;;;;;;5.22;3.15;;;;;;;15.08;63.71;96642.53;4937508;29;20158;-74
2023/05/07 06:20:16;;;;;;;2.90;2.60;;;;;;;15.11;62.90;96647.38;4937773;29;20145;-74
2023/05/07 06:22:43;;;;;;;4.03;2.92;;;;;;;15.17;62.60;96649.16;4936920;29;20047;-78
2023/05/07 06:25:11;;;;;;;3.10;2.67;;;;;;;15.21;63.39;96647.72;4921945;29;20052;-77
2023/05/07 06:27:39;;;;;;;3.65;2.88;;;;;;;15.30;64.19;96647.50;4921542;29;20056;-77
2023/05/07 06:30:08;;;;;;;4.82;3.38;;;;;;;15.36;62.33;96647.47;4918306;29;20095;-76
2023/05/07 06:32:37;;;;;;;4.15;3.70;;;;;;;15.40;61.84;96661.78;4919484;29;20063;-78
2023/05/07 06:35:05;;;;;;;3.33;3.00;;;;;;;15.44;62.07;96663.00;4930696;29;20051;-79
2023/05/07 06:37:34;;;;;;;3.88;3.40;;;;;;;15.53;62.82;96666.19;4937122;29;20058;-78
2023/05/07 06:40:02;;;;;;;4.13;3.00;;;;;;;15.59;61.92;96656.63;4937013;29;20059;-79
2023/05/07 06:42:29;;;;;;;5.80;3.65;;;;;;;15.65;61.57;96661.88;4933287;29;20058;-79
2023/05/07 06:44:57;;;;;;;3.78;3.47;;;;;;;15.76;61.43;96659.59;4924414;29;20056;-80
2023/05/07 06:47:24;;;;;;;4.88;3.20;;;;;;;15.84;61.22;96654.88;4935914;29;20445;-80
2023/05/07 06:49:52;;;;;;;3.72;3.20;;;;;;;15.97;61.35;96658.44;4936166;29;20048;-81
2023/05/07 06:52:22;;;;;;;3.63;3.17;;;;;;;16.09;60.50;96659.31;4940377;29;20055;-82
2023/05/07 06:54:51;;;;;;;3.67;2.78;;;;;;;16.23;61.58;96657.41;4960125;28;20056;-81
2023/05/07 06:57:19;;;;;;;2.88;2.63;;;;;;;16.37;61.12;96664.16;4962277;28;20099;-83
2023/05/07 06:59:47;;;;;;;4.90;3.03;;;;;;;16.55;59.99;96665.19;4928366;29;20136;-78
2023/05/07 07:02:15;;;;;;;5.15;2.20;;;;;;;16.71;60.33;96659.38;4935768;29;20047;-78
2023/05/07 07:04:44;;;;;;;2.90;2.60;;;;;;;16.89;58.76;96667.31;4937039;29;20520;-78
2023/05/07 07:07:12;;;;;;;3.15;2.75;;;;;;;17.06;58.23;96669.34;4935312;29;20143;-78
2023/05/07 07:09:40;;;;;;;3.15;2.63;;;;;;;17.21;58.49;96669.78;4934753;29;20051;-78
2023/05/07 07:12:09;;;;;;;4.32;2.42;;;;;;;17.37;57.08;96662.28;4935273;29;20083;-78
2023/05/07 07:14:36;;;;;;;2.42;2.13;;;;;;;17.53;56.74;96668.75;4934975;29;20052;-79
2023/05/07 07:17:05;;;;;;;3.67;2.13;;;;;;;17.67;55.77;96662.28;4935324;29;20055;-78
2023/05/07 07:19:32;;;;;;;2.97;2.55;;;;;;;17.81;55.79;96668.16;4934958;29;20052;-78
2023/05/07 07:22:00;;;;;;;5.25;2.05;;;;;;;17.95;55.47;96656.41;4935884;29;20090;-78
2023/05/07 07:24:27;;;;;;;2.75;2.05;;;;;;;18.08;55.05;96664.13;4936280;29;20258;-78
2023/05/07 07:26:55;;;;;;;2.60;1.92;;;;;;;18.19;54.74;96659.88;4936838;29;20067;-77
2023/05/07 07:29:26;;;;;;;3.38;1.98;;;;;;;18.30;54.56;96655.63;4939025;29;20051;-78
2023/05/07 07:31:53;;;;;;;2.72;1.73;;;;;;;18.39;54.86;96659.53;4951513;29;20058;-78
2023/05/07 07:34:21;;;;;;;3.22;1.98;;;;;;;18.47;54.99;96658.38;4944661;29;20052;-78
2023/05/07 07:36:49;;;;;;;1.77;1.63;;;;;;;18.59;54.99;96668.97;4938856;29;20047;-78
2023/05/07 07:39:16;;;;;;;2.10;1.90;;;;;;;18.68;53.59;96662.28;4937911;29;20070;-78
2023/05/07 07:41:44;;;;;;;3.17;1.80;;;;;;;18.80;53.38;96671.00;4937835;29;20427;-78
2023/05/07 07:44:12;;;;;;;3.97;2.38;;;;;;;18.90;53.06;96663.31;4937358;29;20062;-78
2023/05/07 07:46:44;;;;;;;1.90;1.80;;;;;;;19.02;53.80;96668.59;4937353;29;20044;-78
2023/05/07 07:49:12;;;;;;;4.10;1.77;;;;;;;19.14;52.68;96665.91;4937064;29;20060;-78
2023/05/07 07:51:39;;;;;;;3.08;1.60;;;;;;;19.25;51.71;96665.06;4937618;29;20508;-78
2023/05/07 07:54:07;;;;;;;1.60;1.50;;;;;;;19.40;51.56;96669.03;4937655;29;20055;-78
2023/05/07 07:56:34;;;;;;;1.65;1.55;;;;;;;19.52;51.34;96667.13;4937106;29;20055;-78
2023/05/07 07:59:02;;;;;;;2.33;1.27;;;;;;;19.67;49.95;96667.41;4937176;29;20423;-78
2023/05/07 08:01:31;;;;;;;1.15;1.05;;;;;;;19.79;49.71;96675.34;4937219;29;20077;-78
2023/05/07 08:04:00;;;;;;;1.40;1.30;;;;;;;19.91;48.89;96670.75;4936837;29;20050;-78
2023/05/07 08:06:27;;;;;;;0.98;0.88;;;;;;;20.10;48.88;96674.00;4936742;29;20054;-77
2023/05/07 08:08:56;;;;;;;2.25;1.02;;;;;;;20.25;48.25;96665.50;4936090;29;20592;-78
2023/05/07 08:11:23;;;;;;;1.30;0.80;;;;;;;20.41;47.90;96671.81;4936754;29;20066;-78
2023/05/07 08:13:51;;;;;;;1.02;0.93;;;;;;;20.51;47.56;96669.31;4936344;29;20146;-78
2023/05/07 08:16:18;;;;;;;2.22;1.10;;;;;;;20.56;47.55;96676.53;4936673;29;20056;-78
2023/05/07 08:18:47;;;;;;;1.20;1.10;;;;;;;20.57;47.17;96673.69;4963795;23;20082;-79
2023/05/07 08:21:16;;;;;;;1.08;1.05;;;;;;;20.63;46.88;96679.03;4955388;28;20055;-80
2023/05/07 08:23:44;;;;;;;0.98;0.90;;;;;;;20.67;46.74;96680.16;4955104;28;20048;-80
2023/05/07 08:26:12;;;;;;;1.23;1.13;;;;;;;20.73;46.49;96676.53;4955213;29;20055;-80
2023/05/07 08:28:39;;;;;;;2.55;1.10;;;;;;;20.80;46.87;96677.16;4954814;29;20503;-80
2023/05/07 08:31:07;;;;;;;1.30;1.20;;;;;;;20.88;46.15;96668.78;4955424;28;20051;-80
2023/05/07 08:33:34;;;;;;;1.30;1.20;;;;;;;20.96;45.55;96665.69;4955149;28;20404;-80
2023/05/07 08:36:02;;;;;;;1.38;1.13;;;;;;;21.06;45.40;96661.59;4955317;28;20434;-80
2023/05/07 08:38:31;;;;;;;1.20;0.93;;;;;;;21.16;46.12;96674.94;4955372;29;20051;-80
2023/05/07 08:40:59;;;;;;;2.58;1.15;;;;;;;21.25;45.13;96668.16;4955063;28;20051;-80
2023/05/07 08:43:28;;;;;;;2.00;1.40;;;;;;;21.36;44.65;96666.41;4955314;29;20057;-80
2023/05/07 08:45:57;;;;;;;2.13;1.30;;;;;;;21.47;44.68;96670.00;4955268;29;20043;-80
2023/05/07 08:48:26;;;;;;;1.60;0.90;;;;;;;21.58;43.86;96671.72;4955248;28;20048;-80
2023/05/07 08:50:54;;;;;;;1.13;1.00;;;;;;;21.69;43.79;96670.78;4955038;29;20405;-80
2023/05/07 08:53:21;;;;;;;0.95;0.85;;;;;;;21.81;45.08;96673.28;4955033;29;20134;-80
2023/05/07 08:55:51;;;;;;;1.50;0.93;;;;;;;21.93;42.72;96670.44;4955597;29;20055;-80
2023/05/07 08:58:19;;;;;;;2.28;0.88;;;;;;;22.03;43.58;96659.94;4955324;29;20057;-80
2023/05/07 09:00:48;;;;;;;1.98;0.80;;;;;;;22.15;45.79;96668.53;4957169;28;20047;-80
2023/05/07 09:03:15;;;;;;;2.65;0.95;;;;;;;22.24;43.09;96663.59;4955045;28;20051;-80
2023/05/07 09:05:44;;;;;;;1.65;0.90;;;;;;;22.30;45.64;96669.72;4955350;29;20130;-80
2023/05/07 09:08:16;;;;;;;0.93;0.93;;;;;;;22.35;42.54;96653.84;4955212;29;20591;-81
2023/05/07 09:10:43;;;;;;;1.45;0.80;;;;;;;22.36;44.03;96653.56;4955358;29;20208;-80
2023/05/07 09:13:14;;;;;;;1.38;0.90;;;;;;;22.44;43.46;96652.28;4955178;29;20059;-80
2023/05/07 09:15:42;;;;;;;1.92;0.95;;;;;;;22.53;45.37;96656.06;4955017;28;20083;-80
2023/05/07 09:18:09;;;;;;;1.70;1.00;;;;;;;22.62;43.24;96664.34;4955107;28;20526;-80
2023/05/07 09:20:37;;;;;;;2.33;0.80;;;;;;;22.65;40.40;96657.72;4954731;28;20051;-80
2023/05/07 09:23:05;;;;;;;1.40;0.95;;;;;;;22.61;41.05;96652.94;4958171;28;20055;-80
2023/05/07 09:25:34;;;;;;;1.27;0.80;;;;;;;22.68;40.05;96658.00;4958194;28;20051;-80
2023/05/07 09:28:02;;;;;;;1.55;0.50;;;;;;;22.73;38.55;96651.91;4958664;28;20426;-80
2023/05/07 09:30:32;;;;;;;0.68;0.57;;;;;;;22.77;37.21;96663.66;4958534;28;20046;-80
2023/05/07 09:33:02;;;;;;;1.08;0.90;;;;;;;22.87;38.24;96657.56;4957801;29;20051;-80
2023/05/07 09:35:31;;;;;;;3.45;0.93;;;;;;;22.96;38.07;96654.16;4957808;28;20090;-80
2023/05/07 09:38:00;;;;;;;1.85;0.70;;;;;;;23.02;36.88;96661.16;4958184;28;20043;-80
2023/05/07 09:40:31;;;;;;;0.85;0.68;;;;;;;23.00;37.63;96671.25;4958152;29;20518;-80
2023/05/07 09:43:10;;;;;;;0.70;0.65;;;;;;;22.99;37.63;96658.16;4958071;29;20491;-80
2023/05/07 09:45:39;;;;;;;1.60;0.73;;;;;;;23.03;38.35;96664.59;4957843;29;20053;-80
2023/05/07 09:48:07;;;;;;;1.08;0.80;;;;;;;23.09;39.42;96665.41;4958374;29;20434;-80
2023/05/07 09:50:37;;;;;;;1.83;0.98;;;;;;;23.15;39.65;96667.81;4958228;29;20075;-80
2023/05/07 09:53:05;;;;;;;1.33;0.88;;;;;;;23.23;38.53;96666.53;4957796;29;20051;-80
2023/05/07 09:55:33;;;;;;;2.15;0.80;;;;;;;23.22;38.35;96664.91;4957313;28;20055;-80
2023/05/07 09:58:02;;;;;;;1.02;0.90;;;;;;;23.20;38.23;96659.09;4956888;28;20058;-80
2023/05/07 10:00:31;;;;;;;1.63;1.33;;;;;;;23.22;38.47;96660.41;4957390;28;20423;-80
2023/05/07 10:03:02;;;;;;;1.40;0.73;;;;;;;23.22;38.74;96663.06;4957264;29;20051;-80
2023/05/07 10:05:29;;;;;;;2.10;1.25;;;;;;;23.23;39.02;96663.88;4957881;29;20055;-80
2023/05/07 10:07:57;;;;;;;0.90;0.90;;;;;;;23.19;39.27;96662.78;4957172;28;20062;-80
2023/05/07 10:10:26;;;;;;;1.02;0.93;;;;;;;23.15;39.43;96656.38;4957406;29;20047;-80
2023/05/07 10:12:54;;;;;;;1.80;0.90;;;;;;;23.15;40.37;96661.72;4957431;28;20526;-80
2023/05/07 10:15:24;;;;;;;1.27;0.73;;;;;;;23.17;39.60;96656.94;4957191;28;20047;-80
2023/05/07 10:17:54;;;;;;;1.10;1.00;;;;;;;23.22;38.90;96651.63;4957298;29;20047;-80
2023/05/07 10:20:25;;;;;;;1.83;0.73;;;;;;;23.23;38.12;96661.22;4957791;29;20078;-80
2023/05/07 10:22:56;;;;;;;0.88;0.52;;;;;;;23.27;39.42;96658.84;4957199;29;20062;-80
2023/05/07 10:25:29;;;;;;;2.15;1.15;;;;;;;23.35;38.84;96656.47;4957504;29;20063;-80
2023/05/07 10:28:01;;;;;;;2.90;0.95;;;;;;;23.35;38.41;96661.78;4956998;29;20049;-80
2023/05/07 10:30:40;;;;;;;1.30;1.20;;;;;;;23.26;38.76;96658.00;4957521;29;20055;-80
2023/05/07 10:33:11;;;;;;;3.35;1.38;;;;;;;23.15;39.03;96656.38;4956535;28;20058;-82
2023/05/07 10:35:42;;;;;;;1.08;0.70;;;;;;;23.14;39.51;96650.28;4956783;29;20106;-80
2023/05/07 10:38:10;;;;;;;1.83;1.20;;;;;;;23.20;39.94;96648.44;4957180;29;20055;-80
2023/05/07 10:40:38;;;;;;;0.82;0.82;;;;;;;23.32;40.73;96649.00;4957126;29;20143;-80
2023/05/07 10:43:06;;;;;;;3.03;0.93;;;;;;;23.47;40.44;96648.22;4957172;28;20052;-80
2023/05/07 10:45:37;;;;;;;2.05;0.60;;;;;;;23.61;39.71;96649.34;4957016;29;20054;-79
2023/05/07 10:48:09;;;;;;;2.83;0.93;;;;;;;23.65;39.07;96638.94;4956497;29;20051;-80
2023/05/07 10:51:19;;;;;;;1.15;0.90;;;;;;;23.70;39.30;96641.59;4956463;29;20507;-80
2023/05/07 10:53:47;;;;;;;1.55;1.00;;;;;;;23.76;39.12;96643.25;4955996;29;20522;-80
2023/05/07 10:56:27;;;;;;;1.20;1.13;;;;;;;23.82;38.33;96649.38;4957205;28;20142;-80
2023/05/07 10:58:54;;;;;;;0.90;0.90;;;;;;;23.82;38.39;96636.88;4957437;29;20066;-80
2023/05/07 11:01:50;;;;;;;1.48;1.00;;;;;;;23.87;40.46;96640.59;4957110;28;20138;-80
2023/05/07 11:04:24;;;;;;;1.52;1.17;;;;;;;23.93;38.43;96639.53;4955723;28;20058;-80
2023/05/07 11:07:30;;;;;;;1.83;1.00;;;;;;;23.92;38.17;96638.75;4955809;29;20050;-80
2023/05/07 11:10:06;;;;;;;1.20;0.80;;;;;;;23.95;38.99;96642.75;4956787;29;20047;-80
2023/05/07 11:12:53;;;;;;;4.15;1.98;;;;;;;24.07;39.77;96640.59;4956285;29;20090;-80
2023/05/07 11:15:49;;;;;;;1.42;1.33;;;;;;;24.24;39.34;96641.09;4956393;29;20051;-80
2023/05/07 11:18:18;;;;;;;4.60;3.33;;;;;;;24.40;38.36;96641.91;4911213;28;20086;-80
2023/05/07 11:20:54;;;;;;;3.05;1.65;;;;;;;24.51;38.24;96645.38;4956040;28;20047;-80
2023/05/07 11:24:07;;;;;;;2.33;1.23;;;;;;;24.57;38.81;96627.50;4955622;29;20052;-80
2023/05/07 11:26:54;;;;;;;2.10;1.38;;;;;;;24.63;38.73;96632.53;4956480;29;20074;-80
2023/05/07 11:29:22;;;;;;;2.00;1.40;;;;;;;24.67;38.66;96622.94;4946988;29;20047;-80
2023/05/07 11:31:51;;;;;;;3.33;2.95;;;;;;;24.70;38.17;96616.25;4955982;29;20047;-80
2023/05/07 11:34:23;;;;;;;3.85;2.53;;;;;;;24.79;37.21;96619.16;4955756;29;20059;-80
2023/05/07 11:36:51;;;;;;;;;;;;;;;24.87;38.36;96615.94;4956545;29;20098;-80
2023/05/07 11:39:29;;;;;;;1.65;1.10;;;;;;;24.88;37.38;96617.50;4956603;29;19929;-80
2023/05/07 11:41:59;;;;;;;1.40;0.70;;;;;;;24.82;37.12;96623.97;4956122;29;20043;-80
2023/05/07 11:44:40;;;;;;;1.67;0.90;;;;;;;24.79;37.68;96621.81;4955303;28;20047;-80
2023/05/07 11:47:07;;;;;;;1.92;0.88;;;;;;;24.80;37.41;96615.44;4956014;29;20051;-80
2023/05/07 11:49:35;;;;;;;1.38;0.90;;;;;;;24.81;36.79;96612.47;4955845;28;20062;-80
2023/05/07 11:52:03;;;;;;;1.10;1.00;;;;;;;24.81;36.83;96619.69;4955626;29;20051;-80
2023/05/07 11:54:36;;;;;;;1.95;1.00;;;;;;;24.83;36.26;96620.22;4955662;29;20051;-80
2023/05/07 11:57:05;;;;;;;1.02;0.90;;;;;;;24.82;36.75;96616.75;4955421;29;20138;-80
2023/05/07 11:59:39;;;;;;;2.42;0.85;;;;;;;24.85;36.41;96620.75;4955556;28;20061;-80
2023/05/07 12:02:07;;;;;;;1.20;0.80;;;;;;;24.86;36.18;96614.31;4955896;29;20085;-80
2023/05/07 12:04:35;;;;;;;1.40;0.75;;;;;;;24.84;36.08;96600.47;4955337;29;20051;-80
2023/05/07 12:07:02;;;;;;;1.70;0.70;;;;;;;24.86;38.04;96603.66;4955782;29;20083;-80
2023/05/07 12:09:30;;;;;;;0.98;0.82;;;;;;;24.88;36.92;96605.00;4955716;28;20058;-80
2023/05/07 12:11:57;;;;;;;0.60;0.60;;;;;;;24.92;36.30;96599.91;4955554;28;20434;-80
2023/05/07 12:14:30;;;;;;;7.53;0.80;;;;;;;24.92;36.72;96602.56;4955159;29;20055;-80
2023/05/07 12:16:58;;;;;;;2.50;0.90;;;;;;;24.91;35.36;96600.97;4955332;29;20050;-80
2023/05/07 12:19:25;;;;;;;2.30;0.63;;;;;;;24.82;36.79;96599.97;4955129;29;20149;-80
2023/05/07 12:21:53;;;;;;;1.05;0.77;;;;;;;24.79;36.00;96603.16;4954713;29;20047;-80
2023/05/07 12:24:21;;;;;;;1.77;0.93;;;;;;;24.79;37.68;96608.50;4954328;28;20141;-80
2023/05/07 12:26:49;;;;;;;1.13;0.65;;;;;;;24.83;36.99;96612.22;4955048;29;20112;-80
2023/05/07 12:29:16;;;;;;;1.02;0.90;;;;;;;24.90;38.85;96610.03;4954940;29;20047;-80
2023/05/07 12:31:45;;;;;;;2.10;0.80;;;;;;;24.93;36.38;96608.72;4955100;29;20047;-80
2023/05/07 12:34:13;;;;;;;1.50;0.70;;;;;;;24.91;36.41;96608.19;4955095;28;20051;-80
2023/05/07 12:36:41;;;;;;;1.27;1.00;;;;;;;24.88;35.02;96609.50;4955009;28;20503;-80
2023/05/07 12:39:09;;;;;;;4.15;1.25;;;;;;;24.83;35.32;96615.66;4954690;28;20043;-80
2023/05/07 12:41:53;;;;;;;1.33;1.00;;;;;;;24.82;35.84;96607.97;4954302;29;20062;-80
2023/05/07 12:44:23;;;;;;;1.60;1.50;;;;;;;24.86;35.83;96608.97;4953989;29;20051;-80
2023/05/07 12:46:52;;;;;;;1.92;1.00;;;;;;;24.87;35.65;96606.06;4955047;29;20059;-80
2023/05/07 12:49:20;;;;;;;1.50;0.80;;;;;;;24.83;36.07;96605.00;4955116;28;20094;-80
2023/05/07 12:51:51;;;;;;;0.93;0.57;;;;;;;24.78;35.18;96602.34;4955578;29;20051;-79
2023/05/07 12:54:28;;;;;;;0.60;0.60;;;;;;;24.74;35.21;96603.19;4954977;29;20052;-80
2023/05/07 12:57:01;;;;;;;2.15;0.90;;;;;;;24.72;35.73;96602.66;4958749;28;20430;-80
2023/05/07 12:59:33;;;;;;;0.70;0.70;;;;;;;24.68;35.80;96607.72;4959339;29;20055;-80
2023/05/07 13:02:02;;;;;;;2.05;0.93;;;;;;;24.65;37.15;96603.72;4959036;28;20051;-80
2023/05/07 13:04:29;;;;;;;3.03;0.65;;;;;;;24.65;35.83;96598.41;4958900;28;20058;-80
2023/05/07 13:06:57;;;;;;;4.22;1.17;;;;;;;24.60;35.26;96595.75;4958611;28;20051;-80
2023/05/07 13:09:25;;;;;;;1.80;0.90;;;;;;;24.51;35.59;96601.91;4958491;28;20047;-80
2023/05/07 13:11:52;;;;;;;0.63;0.63;;;;;;;24.47;37.06;96596.31;4958533;29;20102;-80
2023/05/07 13:14:20;;;;;;;0.80;0.70;;;;;;;24.41;36.26;96598.16;4958452;28;20058;-80
2023/05/07 13:16:48;;;;;;;0.93;0.73;;;;;;;24.33;36.68;96595.25;4958462;29;20098;-80
2023/05/07 13:19:17;;;;;;;2.10;2.00;;;;;;;24.22;37.23;96599.81;4958087;29;20047;-80
2023/05/07 13:21:45;;;;;;;0.80;0.80;;;;;;;24.15;37.28;96593.97;4958156;29;20063;-80
2023/05/07 13:24:12;;;;;;;3.92;1.50;;;;;;;24.07;37.88;96605.94;4957684;28;20054;-80
2023/05/07 13:26:40;;;;;;;6.45;5.25;;;;;;;23.99;37.69;96603.84;4958048;29;20043;-80
2023/05/07 13:29:07;;;;;;;4.22;1.30;;;;;;;23.93;37.85;96602.25;4957936;29;20043;-80
2023/05/07 13:31:35;;;;;;;2.60;1.98;;;;;;;23.89;38.09;96601.16;4958217;28;20518;-80
2023/05/07 13:34:03;;;;;;;15.27;14.15;;;;;;;23.82;38.46;96596.91;4958027;28;20336;-80
2023/05/07 13:36:35;;;;;;;7.93;6.53;;;;;;;23.80;38.41;96596.38;4958247;28;20054;-80
2023/05/07 13:39:02;;;;;;;;;;;;;;;23.78;38.96;96598.50;4958437;29;20051;-80
2023/05/07 13:41:30;;;;;;;1.75;1.55;;;;;;;23.73;38.62;96597.69;4958315;28;19922;-80